createdAt,value
2018-09-20T00:00:23.025Z,88.82
2018-09-20T00:01:23.049Z,88.87
2018-09-20T00:02:23.070Z,88.73
2018-09-20T00:03:23.093Z,88.82
2018-09-20T00:04:23.116Z,88.82
2018-09-20T00:05:23.143Z,88.73
2018-09-20T00:06:23.165Z,88.82
2018-09-20T00:07:23.184Z,88.82
2018-09-20T00:08:23.209Z,88.44
2018-09-20T00:09:23.235Z,89.01
2018-09-20T00:10:23.260Z,89.01
2018-09-20T00:11:23.277Z,89.40
2018-09-20T00:12:23.303Z,89.59
2018-09-20T00:13:23.326Z,89.59
2018-09-20T00:14:23.350Z,89.50
2018-09-20T00:15:23.369Z,89.69
2018-09-20T00:16:23.392Z,89.88
2018-09-20T00:17:23.418Z,89.59
2018-09-20T00:18:23.443Z,89.98
2018-09-20T00:19:23.461Z,89.88
2018-09-20T00:20:23.488Z,90.07
2018-09-20T00:21:23.538Z,90.17
2018-09-20T00:22:23.532Z,90.07
2018-09-20T00:23:23.555Z,89.88
2018-09-20T00:24:23.579Z,89.69
2018-09-20T00:25:23.602Z,89.69
2018-09-20T00:26:23.625Z,90.55
2018-09-20T00:27:23.647Z,90.75
2018-09-20T00:28:23.669Z,90.51
2018-09-20T00:29:23.692Z,90.75
2018-09-20T00:30:23.716Z,90.84
2018-09-20T00:31:23.742Z,91.13
2018-09-20T00:32:23.764Z,91.66
2018-09-20T00:33:23.788Z,92.19
2018-09-20T00:34:23.810Z,91.85
2018-09-20T00:35:23.832Z,91.75
2018-09-20T00:36:23.852Z,91.80
2018-09-20T00:37:23.876Z,91.42
2018-09-20T00:38:23.899Z,92.38
2018-09-20T00:39:23.922Z,91.71
2018-09-20T00:40:23.945Z,91.90
2018-09-20T00:41:23.967Z,91.99
2018-09-20T00:42:23.992Z,91.71
2018-09-20T00:43:24.014Z,91.90
2018-09-20T00:44:24.035Z,91.90
2018-09-20T00:45:24.058Z,91.80
2018-09-20T00:46:24.086Z,92.05
2018-09-20T00:47:24.106Z,92.19
2018-09-20T00:48:24.126Z,92.05
2018-09-20T00:49:24.152Z,92.33
2018-09-20T00:50:24.172Z,92.33
2018-09-20T00:51:24.199Z,93.10
2018-09-20T00:52:24.217Z,93.10
2018-09-20T00:53:24.243Z,93.10
2018-09-20T00:54:24.267Z,92.91
2018-09-20T00:55:24.288Z,93.39
2018-09-20T00:56:24.311Z,93.39
2018-09-20T00:57:24.333Z,93.19
2018-09-20T00:58:24.378Z,93.29
2018-09-20T00:59:24.380Z,93.29
2018-09-20T01:00:24.504Z,93.49
2018-09-20T01:01:24.424Z,93.39
2018-09-20T01:02:24.449Z,94.06
2018-09-20T01:03:24.474Z,93.87
2018-09-20T01:04:24.495Z,93.39
2018-09-20T01:05:24.514Z,93.68
2018-09-20T01:06:24.539Z,93.77
2018-09-20T01:07:24.558Z,93.96
2018-09-20T01:08:24.584Z,93.87
2018-09-20T01:09:24.607Z,93.58
2018-09-20T01:10:24.630Z,93.77
2018-09-20T01:11:24.679Z,94.45
2018-09-20T01:12:24.674Z,93.68
2018-09-20T01:13:24.697Z,94.06
2018-09-20T01:14:24.726Z,94.16
2018-09-20T01:15:24.742Z,94.16
2018-09-20T01:16:24.763Z,94.54
2018-09-20T01:17:24.785Z,94.16
2018-09-20T01:18:24.811Z,94.45
2018-09-20T01:19:24.834Z,94.88
2018-09-20T01:20:24.853Z,94.49
2018-09-20T01:21:24.879Z,95.07
2018-09-20T01:22:24.898Z,95.07
2018-09-20T01:23:24.920Z,95.07
2018-09-20T01:24:24.948Z,95.65
2018-09-20T01:25:24.969Z,95.36
2018-09-20T01:26:24.991Z,96.13
2018-09-20T01:27:25.012Z,95.55
2018-09-20T01:28:25.037Z,95.75
2018-09-20T01:29:25.058Z,95.45
2018-09-20T01:30:25.081Z,95.07
2018-09-20T01:31:25.101Z,95.07
2018-09-20T01:32:25.127Z,95.17
2018-09-20T01:33:25.174Z,95.17
2018-09-20T01:34:25.172Z,95.17
2018-09-20T01:35:25.205Z,95.26
2018-09-20T01:36:25.218Z,95.36
2018-09-20T01:37:25.239Z,95.26
2018-09-20T01:38:25.260Z,95.07
2018-09-20T01:39:25.307Z,94.88
2018-09-20T01:40:25.307Z,95.26
2018-09-20T01:41:25.330Z,94.93
2018-09-20T01:42:25.352Z,94.73
2018-09-20T01:43:25.375Z,94.98
2018-09-20T01:44:25.397Z,95.17
2018-09-20T01:45:25.419Z,95.17
2018-09-20T01:46:25.443Z,95.07
2018-09-20T01:47:25.462Z,95.55
2018-09-20T01:48:25.488Z,95.26
2018-09-20T01:49:25.511Z,95.36
2018-09-20T01:50:25.539Z,95.36
2018-09-20T01:51:25.551Z,96.03
2018-09-20T01:52:25.578Z,95.94
2018-09-20T01:53:25.597Z,95.75
2018-09-20T01:54:25.620Z,95.84
2018-09-20T01:55:25.642Z,96.13
2018-09-20T01:56:25.668Z,96.32
2018-09-20T01:57:25.691Z,96.03
2018-09-20T01:58:25.713Z,96.61
2018-09-20T01:59:25.755Z,96.42
2018-09-20T02:00:25.758Z,96.32
2018-09-20T02:01:25.779Z,96.32
2018-09-20T02:02:25.800Z,96.70
2018-09-20T02:03:25.855Z,96.61
2018-09-20T02:04:25.845Z,96.42
2018-09-20T02:05:25.896Z,96.42
2018-09-20T02:06:25.921Z,96.22
2018-09-20T02:07:25.913Z,96.51
2018-09-20T02:08:25.935Z,96.51
2018-09-20T02:09:25.959Z,96.70
2018-09-20T02:10:25.981Z,96.80
2018-09-20T02:11:26.004Z,96.42
2018-09-20T02:12:26.025Z,96.80
2018-09-20T02:13:26.047Z,96.42
2018-09-20T02:14:26.071Z,96.70
2018-09-20T02:15:26.136Z,96.42
2018-09-20T02:16:26.140Z,96.22
2018-09-20T02:17:26.139Z,96.99
2018-09-20T02:18:26.165Z,96.70
2018-09-20T02:19:26.184Z,96.61
2018-09-20T02:20:26.204Z,97.19
2018-09-20T02:21:26.258Z,97.28
2018-09-20T02:22:26.255Z,97.09
2018-09-20T02:23:26.272Z,97.28
2018-09-20T02:24:26.297Z,97.19
2018-09-20T02:25:26.321Z,97.38
2018-09-20T02:26:26.343Z,97.47
2018-09-20T02:27:26.364Z,97.14
2018-09-20T02:28:26.384Z,97.47
2018-09-20T02:29:26.407Z,96.99
2018-09-20T02:30:26.429Z,97.19
2018-09-20T02:31:26.462Z,97.66
2018-09-20T02:32:26.475Z,97.47
2018-09-20T02:33:26.498Z,97.61
2018-09-20T02:34:26.519Z,98.05
2018-09-20T02:35:26.541Z,97.91
2018-09-20T02:36:26.564Z,97.91
2018-09-20T02:37:26.587Z,98.19
2018-09-20T02:38:26.609Z,98.10
2018-09-20T02:39:26.632Z,98.24
2018-09-20T02:40:26.653Z,97.61
2018-09-20T02:41:26.678Z,98.58
2018-09-20T02:42:26.700Z,98.67
2018-09-20T02:43:26.720Z,98.67
2018-09-20T02:44:26.744Z,98.48
2018-09-20T02:45:26.770Z,98.67
2018-09-20T02:46:26.790Z,98.67
2018-09-20T02:47:26.836Z,98.38
2018-09-20T02:48:26.833Z,99.15
2018-09-20T02:49:26.856Z,98.86
2018-09-20T02:50:26.877Z,98.86
2018-09-20T02:51:26.902Z,99.15
2018-09-20T02:52:26.921Z,99.25
2018-09-20T02:53:26.943Z,98.86
2018-09-20T02:54:26.967Z,99.54
2018-09-20T02:55:26.988Z,99.25
2018-09-20T02:56:27.010Z,99.15
2018-09-20T02:57:27.033Z,98.96
2018-09-20T02:58:27.057Z,99.15
2018-09-20T02:59:27.079Z,99.05
2018-09-20T03:00:27.102Z,99.15
2018-09-20T03:01:27.123Z,99.34
2018-09-20T03:02:27.146Z,99.05
2018-09-20T03:03:27.191Z,98.96
2018-09-20T03:04:27.192Z,99.34
2018-09-20T03:05:27.213Z,99.92
2018-09-20T03:06:27.235Z,99.92
2018-09-20T03:07:27.266Z,99.44
2018-09-20T03:08:27.280Z,99.82
2018-09-20T03:09:27.302Z,99.99
2018-09-20T03:10:27.321Z,99.99
2018-09-20T03:11:27.342Z,99.99
2018-09-20T03:12:27.416Z,99.99
2018-09-20T03:13:27.389Z,99.99
2018-09-20T03:14:27.411Z,99.73
2018-09-20T03:15:27.432Z,99.44
2018-09-20T03:16:27.459Z,99.82
2018-09-20T03:17:27.478Z,99.99
2018-09-20T03:18:27.498Z,99.73
2018-09-20T03:19:27.526Z,99.99
2018-09-20T03:20:27.543Z,99.99
2018-09-20T03:21:27.565Z,99.99
2018-09-20T03:22:27.594Z,99.99
2018-09-20T03:23:27.612Z,99.99
2018-09-20T03:24:27.656Z,99.99
2018-09-20T03:25:27.657Z,99.99
2018-09-20T03:26:27.680Z,99.54
2018-09-20T03:27:27.699Z,99.54
2018-09-20T03:28:27.724Z,99.54
2018-09-20T03:29:27.743Z,99.99
2018-09-20T03:30:27.830Z,99.99
2018-09-20T03:31:27.788Z,99.99
2018-09-20T03:32:27.810Z,99.99
2018-09-20T03:33:27.832Z,99.99
2018-09-20T03:34:27.854Z,99.99
2018-09-20T03:35:27.883Z,99.99
2018-09-20T03:36:27.897Z,99.99
2018-09-20T03:37:27.922Z,99.99
2018-09-20T03:38:27.942Z,99.99
2018-09-20T03:39:27.963Z,99.99
2018-09-20T03:40:27.986Z,99.99
2018-09-20T03:41:28.011Z,99.99
2018-09-20T03:42:28.034Z,99.99
2018-09-20T03:43:28.055Z,99.99
2018-09-20T03:44:28.074Z,99.99
2018-09-20T03:45:28.099Z,99.99
2018-09-20T03:46:28.125Z,99.99
2018-09-20T03:47:28.145Z,99.99
2018-09-20T03:48:28.167Z,99.99
2018-09-20T03:49:28.189Z,99.99
2018-09-20T03:50:28.206Z,99.99
2018-09-20T03:51:28.234Z,99.99
2018-09-20T03:52:28.250Z,99.99
2018-09-20T03:53:28.274Z,99.99
2018-09-20T03:54:28.297Z,99.99
2018-09-20T03:55:28.319Z,99.99
2018-09-20T03:56:28.340Z,99.99
2018-09-20T03:57:28.364Z,99.99
2018-09-20T03:58:28.383Z,99.99
2018-09-20T03:59:28.406Z,99.99
2018-09-20T04:00:28.428Z,99.99
2018-09-20T04:01:28.451Z,99.99
2018-09-20T04:02:28.474Z,99.99
2018-09-20T04:03:28.495Z,99.99
2018-09-20T04:04:28.517Z,99.99
2018-09-20T04:05:28.536Z,99.99
2018-09-20T04:06:28.560Z,99.99
2018-09-20T04:07:28.581Z,99.99
2018-09-20T04:08:28.604Z,99.99
2018-09-20T04:09:28.679Z,99.99
2018-09-20T04:10:28.649Z,99.99
2018-09-20T04:11:28.670Z,99.99
2018-09-20T04:12:28.693Z,99.99
2018-09-20T04:13:28.716Z,99.99
2018-09-20T04:14:28.735Z,99.99
2018-09-20T04:15:28.758Z,99.99
2018-09-20T04:16:29.314Z,99.99
2018-09-20T04:17:28.803Z,99.99
2018-09-20T04:18:28.826Z,99.99
2018-09-20T04:19:28.844Z,99.99
2018-09-20T04:20:28.890Z,99.99
2018-09-20T04:21:28.894Z,99.99
2018-09-20T04:22:28.912Z,99.99
2018-09-20T04:23:28.984Z,99.99
2018-09-20T04:24:28.985Z,99.99
2018-09-20T04:25:28.977Z,99.99
2018-09-20T04:26:29.007Z,99.99
2018-09-20T04:27:29.026Z,99.99
2018-09-20T04:28:29.073Z,99.99
2018-09-20T04:29:29.065Z,99.99
2018-09-20T04:30:29.092Z,99.99
2018-09-20T04:31:29.111Z,99.99
2018-09-20T04:32:29.137Z,99.99
2018-09-20T04:33:29.158Z,99.99
2018-09-20T04:34:29.226Z,99.99
2018-09-20T04:35:29.200Z,99.99
2018-09-20T04:36:29.219Z,99.99
2018-09-20T04:37:29.241Z,99.99
2018-09-20T04:38:29.265Z,99.99
2018-09-20T04:39:29.288Z,99.99
2018-09-20T04:40:29.307Z,99.99
2018-09-20T04:41:29.330Z,99.99
2018-09-20T04:42:29.352Z,99.99
2018-09-20T04:43:29.375Z,99.99
2018-09-20T04:44:29.399Z,99.99
2018-09-20T04:45:29.417Z,99.99
2018-09-20T04:46:29.452Z,99.99
2018-09-20T04:47:29.463Z,99.99
2018-09-20T04:48:29.486Z,99.99
2018-09-20T04:49:29.509Z,99.99
2018-09-20T04:50:29.529Z,99.99
2018-09-20T04:51:29.552Z,99.99
2018-09-20T04:52:29.571Z,99.99
2018-09-20T04:53:29.697Z,99.99
2018-09-20T04:54:29.618Z,99.99
2018-09-20T04:55:29.638Z,99.99
2018-09-20T04:56:29.658Z,99.99
2018-09-20T04:57:29.680Z,99.99
2018-09-20T04:58:29.702Z,99.99
2018-09-20T04:59:29.723Z,99.99
2018-09-20T05:00:29.746Z,99.99
2018-09-20T05:01:29.768Z,99.99
2018-09-20T05:02:29.792Z,99.99
2018-09-20T05:03:29.813Z,99.99
2018-09-20T05:04:29.835Z,99.99
2018-09-20T05:05:29.855Z,99.99
2018-09-20T05:06:29.883Z,99.99
2018-09-20T05:07:29.899Z,99.99
2018-09-20T05:08:29.920Z,99.99
2018-09-20T05:09:30.003Z,99.99
2018-09-20T05:10:29.967Z,99.99
2018-09-20T05:11:29.986Z,99.99
2018-09-20T05:12:30.010Z,99.99
2018-09-20T05:13:30.031Z,99.99
2018-09-20T05:14:30.055Z,99.99
2018-09-20T05:15:30.073Z,99.99
2018-09-20T05:16:30.097Z,99.99
2018-09-20T05:17:30.116Z,99.99
2018-09-20T05:18:30.143Z,99.99
2018-09-20T05:19:30.160Z,99.99
2018-09-20T05:20:30.181Z,99.99
2018-09-20T05:21:30.208Z,99.99
2018-09-20T05:22:30.228Z,99.99
2018-09-20T05:23:30.248Z,99.99
2018-09-20T05:24:30.268Z,99.99
2018-09-20T05:25:30.293Z,99.99
2018-09-20T05:26:30.313Z,99.99
2018-09-20T05:27:30.333Z,99.99
2018-09-20T05:28:30.356Z,99.99
2018-09-20T05:29:30.379Z,99.99
2018-09-20T05:30:30.404Z,99.99
2018-09-20T05:31:30.420Z,99.99
2018-09-20T05:32:30.444Z,99.99
2018-09-20T05:33:30.466Z,99.99
2018-09-20T05:34:30.494Z,99.99
2018-09-20T05:35:30.596Z,99.99
2018-09-20T05:36:30.531Z,99.99
2018-09-20T05:37:30.553Z,99.99
2018-09-20T05:38:30.575Z,99.99
2018-09-20T05:39:30.596Z,99.99
2018-09-20T05:40:30.618Z,99.99
2018-09-20T05:41:30.641Z,99.99
2018-09-20T05:42:30.661Z,99.99
2018-09-20T05:43:30.717Z,99.99
2018-09-20T05:44:30.703Z,99.99
2018-09-20T05:45:30.729Z,99.99
2018-09-20T05:46:30.747Z,99.99
2018-09-20T05:47:30.774Z,99.99
2018-09-20T05:48:30.793Z,99.99
2018-09-20T05:49:30.814Z,99.99
2018-09-20T05:50:30.837Z,99.99
2018-09-20T05:51:30.858Z,99.99
2018-09-20T05:52:30.878Z,99.99
2018-09-20T05:53:30.903Z,99.99
2018-09-20T05:54:30.924Z,99.99
2018-09-20T05:55:30.947Z,99.99
2018-09-20T05:56:30.968Z,99.99
2018-09-20T05:57:30.990Z,99.99
2018-09-20T05:58:31.012Z,99.99
2018-09-20T05:59:31.031Z,99.99
2018-09-20T06:00:31.057Z,99.99
2018-09-20T06:01:31.076Z,99.99
2018-09-20T06:02:31.099Z,99.99
2018-09-20T06:03:31.120Z,99.99
2018-09-20T06:04:31.164Z,99.99
2018-09-20T06:05:31.211Z,99.99
2018-09-20T06:06:31.187Z,99.99
2018-09-20T06:07:31.208Z,99.99
2018-09-20T06:08:31.230Z,99.99
2018-09-20T06:09:31.253Z,99.99
2018-09-20T06:10:31.272Z,99.99
2018-09-20T06:11:31.293Z,99.99
2018-09-20T06:12:31.319Z,99.99
2018-09-20T06:13:31.338Z,99.99
2018-09-20T06:14:31.362Z,99.99
2018-09-20T06:15:31.385Z,99.99
2018-09-20T06:16:31.408Z,99.99
2018-09-20T06:17:31.425Z,99.99
2018-09-20T06:18:31.451Z,99.99
2018-09-20T06:19:31.478Z,99.99
2018-09-20T06:20:31.494Z,99.99
2018-09-20T06:21:31.515Z,99.99
2018-09-20T06:22:31.538Z,99.99
2018-09-20T06:23:31.559Z,99.99
2018-09-20T06:24:31.580Z,99.99
2018-09-20T06:25:31.602Z,99.99
2018-09-20T06:26:31.625Z,99.99
2018-09-20T06:27:31.685Z,99.99
2018-09-20T06:28:31.671Z,99.99
2018-09-20T06:29:31.692Z,99.99
2018-09-20T06:30:31.715Z,99.99
2018-09-20T06:31:31.737Z,99.99
2018-09-20T06:32:31.759Z,99.99
2018-09-20T06:33:32.184Z,99.99
2018-09-20T06:34:32.137Z,99.99
2018-09-20T06:35:31.832Z,99.99
2018-09-20T06:36:31.848Z,99.99
2018-09-20T06:37:31.870Z,99.99
2018-09-20T06:38:31.896Z,99.99
2018-09-20T06:39:31.913Z,99.68
2018-09-20T06:40:31.936Z,99.87
2018-09-20T06:41:31.955Z,99.68
2018-09-20T06:42:31.980Z,99.99
2018-09-20T06:43:31.999Z,99.73
2018-09-20T06:44:32.026Z,99.15
2018-09-20T06:45:32.044Z,99.25
2018-09-20T06:46:32.070Z,99.15
2018-09-20T06:47:32.189Z,98.00
2018-09-20T06:48:32.142Z,98.00
2018-09-20T06:49:32.212Z,98.48
2018-09-20T06:50:32.236Z,97.71
2018-09-20T06:51:32.719Z,97.52
2018-09-20T06:52:32.315Z,97.57
2018-09-20T06:53:32.225Z,97.47
2018-09-20T06:54:32.252Z,97.28
2018-09-20T06:55:32.272Z,97.28
2018-09-20T06:56:32.323Z,97.38
2018-09-20T06:57:32.313Z,97.38
2018-09-20T06:58:32.336Z,96.80
2018-09-20T06:59:32.358Z,96.99
2018-09-20T07:00:32.381Z,96.99
2018-09-20T07:01:32.415Z,96.90
2018-09-20T07:02:32.426Z,97.09
2018-09-20T07:03:32.451Z,96.51
2018-09-20T07:04:32.471Z,96.42
2018-09-20T07:05:32.495Z,96.22
2018-09-20T07:06:32.521Z,96.32
2018-09-20T07:07:32.541Z,96.08
2018-09-20T07:08:32.562Z,95.94
2018-09-20T07:09:32.589Z,95.79
2018-09-20T07:10:32.609Z,95.50
2018-09-20T07:11:32.633Z,95.02
2018-09-20T07:12:32.657Z,94.83
2018-09-20T07:13:32.726Z,94.64
2018-09-20T07:14:32.705Z,94.92
2018-09-20T07:15:32.725Z,94.45
2018-09-20T07:16:32.747Z,95.02
2018-09-20T07:17:32.768Z,94.83
2018-09-20T07:18:32.795Z,94.83
2018-09-20T07:19:32.815Z,94.54
2018-09-20T07:20:32.839Z,94.73
2018-09-20T07:21:32.862Z,94.35
2018-09-20T07:22:32.884Z,94.20
2018-09-20T07:23:32.910Z,93.82
2018-09-20T07:24:32.932Z,93.53
2018-09-20T07:25:32.968Z,93.33
2018-09-20T07:26:32.979Z,93.33
2018-09-20T07:27:32.999Z,93.33
2018-09-20T07:28:33.023Z,93.43
2018-09-20T07:29:33.048Z,93.33
2018-09-20T07:30:33.076Z,93.62
2018-09-20T07:31:33.094Z,93.24
2018-09-20T07:32:33.146Z,92.47
2018-09-20T07:33:33.143Z,92.61
2018-09-20T07:34:33.162Z,92.71
2018-09-20T07:35:33.185Z,92.52
2018-09-20T07:36:33.212Z,92.22
2018-09-20T07:37:33.235Z,92.52
2018-09-20T07:38:33.256Z,91.84
2018-09-20T07:39:33.382Z,91.84
2018-09-20T07:40:33.305Z,91.17
2018-09-20T07:41:33.326Z,91.36
2018-09-20T07:42:33.351Z,91.21
2018-09-20T07:43:33.383Z,90.44
2018-09-20T07:44:33.397Z,90.25
2018-09-20T07:45:33.423Z,90.50
2018-09-20T07:46:33.446Z,90.83
2018-09-20T07:47:33.471Z,90.44
2018-09-20T07:48:33.493Z,89.77
2018-09-20T07:49:33.516Z,88.90
2018-09-20T07:50:33.541Z,88.56
2018-09-20T07:51:33.561Z,87.98
2018-09-20T07:52:33.586Z,87.79
2018-09-20T07:53:33.624Z,87.40
2018-09-20T07:54:33.634Z,87.02
2018-09-20T07:55:33.658Z,86.68
2018-09-20T07:56:33.720Z,87.06
2018-09-20T07:57:33.706Z,86.92
2018-09-20T07:58:33.730Z,86.87
2018-09-20T07:59:33.756Z,86.58
2018-09-20T08:00:33.778Z,86.19
2018-09-20T08:01:33.828Z,86.68
2018-09-20T08:02:33.827Z,85.61
2018-09-20T08:03:33.857Z,85.71
2018-09-20T08:04:33.878Z,85.42
2018-09-20T08:05:33.900Z,86.19
2018-09-20T08:06:33.928Z,86.00
2018-09-20T08:07:33.949Z,85.52
2018-09-20T08:08:33.973Z,85.42
2018-09-20T08:09:34.000Z,85.33
2018-09-20T08:10:34.024Z,85.42
2018-09-20T08:11:34.051Z,85.13
2018-09-20T08:12:34.079Z,85.61
2018-09-20T08:13:34.099Z,85.81
2018-09-20T08:14:34.121Z,85.23
2018-09-20T08:15:34.150Z,85.42
2018-09-20T08:16:34.178Z,85.42
2018-09-20T08:17:34.194Z,85.52
2018-09-20T08:18:34.226Z,85.13
2018-09-20T08:19:34.246Z,86.00
2018-09-20T08:20:34.276Z,85.77
2018-09-20T08:21:34.330Z,85.47
2018-09-20T08:22:34.324Z,85.77
2018-09-20T08:23:34.343Z,86.00
2018-09-20T08:24:34.370Z,85.91
2018-09-20T08:25:34.392Z,85.91
2018-09-20T08:26:34.416Z,86.19
2018-09-20T08:27:34.443Z,85.33
2018-09-20T08:28:34.467Z,85.61
2018-09-20T08:29:34.490Z,85.52
2018-09-20T08:30:34.519Z,85.03
2018-09-20T08:31:34.539Z,85.52
2018-09-20T08:32:34.567Z,84.94
2018-09-20T08:33:34.588Z,84.84
2018-09-20T08:34:34.679Z,85.03
2018-09-20T08:35:34.637Z,84.84
2018-09-20T08:36:34.664Z,85.03
2018-09-20T08:37:34.780Z,85.03
2018-09-20T08:38:34.717Z,84.55
2018-09-20T08:39:34.736Z,84.55
2018-09-20T08:40:34.767Z,84.59
2018-09-20T08:41:34.786Z,83.92
2018-09-20T08:42:34.811Z,83.15
2018-09-20T08:43:34.836Z,82.96
2018-09-20T08:44:34.861Z,83.34
2018-09-20T08:45:34.885Z,82.76
2018-09-20T08:46:34.910Z,83.25
2018-09-20T08:47:34.967Z,83.34
2018-09-20T08:48:34.959Z,82.57
2018-09-20T08:49:34.989Z,83.34
2018-09-20T08:50:35.013Z,83.15
2018-09-20T08:51:35.036Z,82.76
2018-09-20T08:52:35.061Z,82.86
2018-09-20T08:53:35.086Z,82.57
2018-09-20T08:54:35.110Z,82.96
2018-09-20T08:55:35.134Z,82.86
2018-09-20T08:56:35.160Z,82.67
2018-09-20T08:57:35.185Z,83.15
2018-09-20T08:58:35.215Z,82.61
2018-09-20T08:59:35.233Z,82.51
2018-09-20T09:00:35.260Z,81.74
2018-09-20T09:01:35.283Z,82.03
2018-09-20T09:02:35.423Z,81.55
2018-09-20T09:03:35.334Z,81.74
2018-09-20T09:04:35.406Z,81.55
2018-09-20T09:05:35.386Z,81.74
2018-09-20T09:06:35.411Z,81.20
2018-09-20T09:07:35.474Z,80.72
2018-09-20T09:08:35.484Z,80.72
2018-09-20T09:09:35.486Z,80.14
2018-09-20T09:10:35.513Z,79.95
2018-09-20T09:11:35.534Z,80.33
2018-09-20T09:12:35.561Z,79.37
2018-09-20T09:13:35.584Z,79.08
2018-09-20T09:14:35.610Z,79.17
2018-09-20T09:15:35.637Z,78.79
2018-09-20T09:16:35.660Z,78.69
2018-09-20T09:17:35.687Z,78.41
2018-09-20T09:18:35.713Z,78.41
2018-09-20T09:19:35.791Z,78.31
2018-09-20T09:20:35.760Z,78.25
2018-09-20T09:21:35.785Z,77.48
2018-09-20T09:22:35.811Z,77.57
2018-09-20T09:23:35.835Z,78.06
2018-09-20T09:24:35.861Z,77.28
2018-09-20T09:25:35.888Z,77.00
2018-09-20T09:26:35.913Z,76.35
2018-09-20T09:27:35.939Z,76.64
2018-09-20T09:28:35.972Z,76.35
2018-09-20T09:29:35.990Z,75.68
2018-09-20T09:30:36.015Z,75.58
2018-09-20T09:31:36.047Z,75.29
2018-09-20T09:32:36.066Z,74.36
2018-09-20T09:33:36.091Z,74.27
2018-09-20T09:34:36.117Z,73.97
2018-09-20T09:35:36.148Z,73.49
2018-09-20T09:36:36.171Z,72.62
2018-09-20T09:37:36.197Z,72.42
2018-09-20T09:38:36.220Z,72.91
2018-09-20T09:39:36.245Z,72.72
2018-09-20T09:40:36.300Z,71.94
2018-09-20T09:41:36.298Z,72.24
2018-09-20T09:42:36.325Z,72.04
2018-09-20T09:43:36.351Z,71.56
2018-09-20T09:44:36.374Z,71.94
2018-09-20T09:45:36.401Z,71.94
2018-09-20T09:46:36.429Z,71.46
2018-09-20T09:47:36.452Z,71.26
2018-09-20T09:48:36.480Z,71.26
2018-09-20T09:49:36.504Z,71.08
2018-09-20T09:50:36.533Z,71.66
2018-09-20T09:51:36.886Z,71.17
2018-09-20T09:52:36.591Z,70.68
2018-09-20T09:53:36.614Z,70.50
2018-09-20T09:54:36.657Z,70.78
2018-09-20T09:55:36.659Z,70.78
2018-09-20T09:56:36.708Z,70.50
2018-09-20T09:57:36.716Z,70.30
2018-09-20T09:58:36.738Z,70.92
2018-09-20T09:59:36.775Z,70.82
2018-09-20T10:00:36.792Z,70.40
2018-09-20T10:01:36.820Z,70.30
2018-09-20T10:02:36.874Z,70.40
2018-09-20T10:03:36.870Z,70.50
2018-09-20T10:04:36.897Z,70.88
2018-09-20T10:05:36.921Z,70.40
2018-09-20T10:06:36.950Z,70.01
2018-09-20T10:07:36.973Z,70.50
2018-09-20T10:08:37.004Z,69.53
2018-09-20T10:09:37.027Z,70.24
2018-09-20T10:10:37.093Z,69.95
2018-09-20T10:11:37.079Z,69.95
2018-09-20T10:12:37.105Z,69.37
2018-09-20T10:13:37.195Z,69.17
2018-09-20T10:14:37.207Z,68.69
2018-09-20T10:15:37.208Z,68.40
2018-09-20T10:16:37.206Z,68.11
2018-09-20T10:17:37.236Z,68.01
2018-09-20T10:18:37.261Z,67.66
2018-09-20T10:19:37.288Z,67.95
2018-09-20T10:20:37.315Z,67.56
2018-09-20T10:21:37.338Z,66.60
2018-09-20T10:22:37.367Z,65.24
2018-09-20T10:23:37.393Z,65.34
2018-09-20T10:24:37.427Z,64.07
2018-09-20T10:25:37.446Z,63.40
2018-09-20T10:26:37.475Z,63.98
2018-09-20T10:27:37.498Z,63.69
2018-09-20T10:28:37.527Z,63.69
2018-09-20T10:29:37.550Z,63.79
2018-09-20T10:30:37.575Z,63.59
2018-09-20T10:31:37.601Z,64.47
2018-09-20T10:32:37.629Z,63.49
2018-09-20T10:33:37.654Z,63.59
2018-09-20T10:34:37.680Z,63.31
2018-09-20T10:35:37.709Z,62.56
2018-09-20T10:36:37.984Z,62.66
2018-09-20T10:37:37.760Z,62.72
2018-09-20T10:38:37.786Z,62.63
2018-09-20T10:39:37.816Z,62.75
2018-09-20T10:40:37.842Z,62.72
2018-09-20T10:41:37.868Z,63.21
2018-09-20T10:42:37.896Z,63.24
2018-09-20T10:43:37.959Z,62.63
2018-09-20T10:44:37.946Z,63.04
2018-09-20T10:45:37.975Z,62.85
2018-09-20T10:46:37.999Z,62.56
2018-09-20T10:47:38.027Z,63.24
2018-09-20T10:48:38.052Z,62.66
2018-09-20T10:49:38.079Z,62.75
2018-09-20T10:50:38.109Z,62.92
2018-09-20T10:51:38.134Z,62.75
2018-09-20T10:52:38.160Z,62.46
2018-09-20T10:53:38.187Z,62.46
2018-09-20T10:54:38.269Z,62.37
2018-09-20T10:55:38.239Z,62.56
2018-09-20T10:56:38.267Z,62.37
2018-09-20T10:57:38.296Z,63.01
2018-09-20T10:58:38.322Z,63.14
2018-09-20T10:59:38.349Z,63.40
2018-09-20T11:00:38.374Z,63.24
2018-09-20T11:01:38.399Z,62.75
2018-09-20T11:02:38.429Z,62.66
2018-09-20T11:03:38.452Z,61.52
2018-09-20T11:04:38.485Z,61.52
2018-09-20T11:05:38.507Z,61.43
2018-09-20T11:06:38.534Z,61.91
2018-09-20T11:07:38.563Z,61.72
2018-09-20T11:08:38.589Z,61.62
2018-09-20T11:09:38.615Z,60.46
2018-09-20T11:10:38.686Z,60.75
2018-09-20T11:11:38.667Z,61.30
2018-09-20T11:12:38.697Z,60.91
2018-09-20T11:13:38.725Z,62.07
2018-09-20T11:14:38.753Z,62.17
2018-09-20T11:15:38.777Z,62.07
2018-09-20T11:16:38.804Z,61.88
2018-09-20T11:17:38.830Z,61.88
2018-09-20T11:18:38.858Z,61.79
2018-09-20T11:19:38.885Z,62.17
2018-09-20T11:20:38.912Z,62.27
2018-09-20T11:21:38.938Z,61.98
2018-09-20T11:22:38.964Z,61.62
2018-09-20T11:23:38.990Z,61.79
2018-09-20T11:24:39.024Z,61.88
2018-09-20T11:25:39.045Z,61.69
2018-09-20T11:26:39.074Z,61.52
2018-09-20T11:27:39.101Z,60.94
2018-09-20T11:28:39.177Z,60.52
2018-09-20T11:29:39.405Z,60.72
2018-09-20T11:30:39.203Z,60.72
2018-09-20T11:31:39.208Z,60.72
2018-09-20T11:32:39.234Z,60.75
2018-09-20T11:33:39.261Z,61.14
2018-09-20T11:34:39.291Z,60.82
2018-09-20T11:35:39.314Z,61.11
2018-09-20T11:36:39.370Z,61.69
2018-09-20T11:37:39.370Z,61.21
2018-09-20T11:38:39.397Z,61.49
2018-09-20T11:39:39.423Z,62.46
2018-09-20T11:40:39.447Z,62.53
2018-09-20T11:41:39.476Z,62.92
2018-09-20T11:42:39.507Z,62.63
2018-09-20T11:43:39.529Z,62.63
2018-09-20T11:44:39.556Z,62.14
2018-09-20T11:45:39.582Z,62.14
2018-09-20T11:46:39.681Z,62.37
2018-09-20T11:47:39.636Z,61.69
2018-09-20T11:48:39.667Z,61.21
2018-09-20T11:49:39.691Z,60.91
2018-09-20T11:50:39.717Z,60.82
2018-09-20T11:51:39.745Z,60.72
2018-09-20T11:52:39.797Z,60.75
2018-09-20T11:53:39.797Z,60.72
2018-09-20T11:54:39.825Z,60.65
2018-09-20T11:55:39.851Z,60.65
2018-09-20T11:56:39.879Z,59.49
2018-09-20T11:57:39.905Z,59.17
2018-09-20T11:58:39.933Z,59.07
2018-09-20T11:59:39.960Z,59.17
2018-09-20T12:00:39.987Z,58.98
2018-09-20T12:01:40.014Z,59.56
2018-09-20T12:02:40.037Z,59.56
2018-09-20T12:03:40.064Z,59.56
2018-09-20T12:04:40.093Z,59.36
2018-09-20T12:05:40.121Z,59.94
2018-09-20T12:06:40.144Z,59.56
2018-09-20T12:07:40.171Z,60.04
2018-09-20T12:08:40.199Z,59.84
2018-09-20T12:09:40.226Z,59.75
2018-09-20T12:10:40.251Z,59.84
2018-09-20T12:11:40.277Z,60.43
2018-09-20T12:12:40.308Z,59.75
2018-09-20T12:13:40.335Z,59.46
2018-09-20T12:14:40.431Z,58.52
2018-09-20T12:15:40.387Z,58.52
2018-09-20T12:16:40.410Z,57.84
2018-09-20T12:17:40.567Z,57.65
2018-09-20T12:18:40.466Z,57.26
2018-09-20T12:19:40.490Z,57.75
2018-09-20T12:20:40.524Z,58.04
2018-09-20T12:21:40.553Z,58.42
2018-09-20T12:22:40.573Z,58.42
2018-09-20T12:23:40.603Z,58.52
2018-09-20T12:24:40.625Z,57.94
2018-09-20T12:25:40.653Z,57.45
2018-09-20T12:26:40.677Z,57.17
2018-09-20T12:27:40.710Z,57.45
2018-09-20T12:28:40.731Z,57.29
2018-09-20T12:29:40.759Z,57.26
2018-09-20T12:30:40.789Z,57.48
2018-09-20T12:31:40.839Z,58.06
2018-09-20T12:32:40.857Z,57.36
2018-09-20T12:33:40.870Z,57.65
2018-09-20T12:34:40.894Z,57.65
2018-09-20T12:35:40.948Z,57.45
2018-09-20T12:36:40.947Z,57.45
2018-09-20T12:37:40.971Z,57.36
2018-09-20T12:38:41.062Z,57.55
2018-09-20T12:39:41.031Z,57.39
2018-09-20T12:40:41.061Z,56.90
2018-09-20T12:41:41.091Z,56.41
2018-09-20T12:42:41.164Z,56.03
2018-09-20T12:43:41.152Z,55.93
2018-09-20T12:44:41.171Z,55.54
2018-09-20T12:45:41.194Z,55.83
2018-09-20T12:46:41.219Z,55.64
2018-09-20T12:47:41.245Z,55.44
2018-09-20T12:48:41.273Z,55.64
2018-09-20T12:49:41.305Z,55.64
2018-09-20T12:50:41.336Z,55.64
2018-09-20T12:51:41.354Z,55.93
2018-09-20T12:52:41.380Z,55.64